Time;durP1;ratioP1;P1;durP2;ratioP2;P2;SDS_P1;SDS_P2;PMS_P1;PMS_P2;Temp;Humidity;BMP_temperature;BMP_pressure;BME280_temperature;BME280_humidity;BME280_pressure;Samples;Min_cycle;Max_cycle;Signal;HPM_P1;HPM_P2
2021/12/28 00:02:06;;;;;;;10.30;6.55;;;;;;;3.40;65.00;91678.72;2074908;69;20613;-74
2021/12/28 00:04:32;;;;;;;10.27;5.55;;;;;;;3.39;63.73;91680.78;2074655;69;20606;-77
2021/12/28 00:06:57;;;;;;;11.65;6.60;;;;;;;3.43;63.64;91677.53;2074768;69;20551;-72
2021/12/28 00:09:23;;;;;;;9.75;5.47;;;;;;;3.27;64.93;91666.75;2074620;69;20644;-74
2021/12/28 00:11:49;;;;;;;11.25;5.95;;;;;;;3.33;63.53;91672.00;2074996;69;20602;-73
2021/12/28 00:14:15;;;;;;;9.85;5.20;;;;;;;3.27;63.66;91658.41;2074670;69;20212;-71
2021/12/28 00:19:25;;;;;;;10.00;5.50;;;;;;;3.07;64.33;91670.88;2074755;69;20144;-74
2021/12/28 00:21:51;;;;;;;9.23;5.68;;;;;;;3.02;64.34;91661.53;2074736;69;20147;-72
2021/12/28 00:24:17;;;;;;;10.98;5.50;;;;;;;3.03;64.23;91654.63;2074885;69;20144;-72
2021/12/28 00:26:43;;;;;;;10.05;5.60;;;;;;;2.93;64.43;91653.16;2074836;69;20187;-72
2021/12/28 00:29:09;;;;;;;12.73;6.50;;;;;;;2.94;63.66;91649.09;2071470;69;20155;-72
2021/12/28 00:31:35;;;;;;;12.50;5.50;;;;;;;2.91;64.06;91636.34;2071430;69;20147;-72
2021/12/28 00:34:01;;;;;;;11.90;6.38;;;;;;;2.94;64.72;91626.84;2071715;69;20491;-77
2021/12/28 00:36:26;;;;;;;9.48;5.68;;;;;;;2.89;63.51;91625.09;2074927;69;20160;-76
2021/12/28 00:38:52;;;;;;;8.70;4.50;;;;;;;2.75;64.78;91625.56;2075104;69;20140;-76
2021/12/28 00:41:18;;;;;;;6.90;3.45;;;;;;;2.90;64.15;91624.50;2075140;69;20243;-73
2021/12/28 00:43:43;;;;;;;10.77;6.40;;;;;;;2.29;66.81;91640.31;2071508;69;20637;-77
2021/12/28 00:46:10;;;;;;;11.55;6.43;;;;;;;2.47;65.18;91645.72;2074613;69;20140;-75
2021/12/28 00:48:36;;;;;;;13.00;8.10;;;;;;;2.33;65.55;91642.66;2071373;69;20594;-72
2021/12/28 00:51:04;;;;;;;9.30;5.80;;;;;;;2.29;66.32;91650.69;2074706;69;20144;-72
2021/12/28 00:53:30;;;;;;;11.00;5.95;;;;;;;2.36;65.64;91654.63;2074987;69;20199;-72
2021/12/28 00:55:55;;;;;;;10.25;6.40;;;;;;;2.31;66.14;91645.28;2074958;69;20271;-72
2021/12/28 00:58:21;;;;;;;11.85;6.25;;;;;;;2.34;65.93;91652.47;2074982;69;20642;-75
2021/12/28 01:00:47;;;;;;;10.18;6.15;;;;;;;2.46;65.07;91652.59;2071618;69;20172;-73
2021/12/28 01:03:14;;;;;;;10.10;5.65;;;;;;;2.20;66.22;91652.16;2074734;69;20215;-76
2021/12/28 01:05:41;;;;;;;9.55;5.57;;;;;;;2.37;64.89;91654.06;2074534;69;20167;-72
2021/12/28 01:08:08;;;;;;;9.52;5.10;;;;;;;2.31;65.57;91647.34;2074634;69;20162;-73
2021/12/28 01:10:45;;;;;;;10.05;5.53;;;;;;;2.41;65.54;91642.50;2071275;69;20168;-71
2021/12/28 01:13:11;;;;;;;7.65;4.10;;;;;;;2.32;65.05;91634.91;2074701;69;20156;-75
2021/12/28 01:15:38;;;;;;;7.25;3.47;;;;;;;2.33;64.92;91647.47;2074662;69;20168;-72
2021/12/28 01:18:03;;;;;;;5.38;3.00;;;;;;;2.38;64.52;91649.22;2074906;69;20632;-71
2021/12/28 01:20:29;;;;;;;6.90;3.72;;;;;;;2.25;64.84;91645.56;2074725;69;20144;-73
2021/12/28 01:22:56;;;;;;;9.00;4.78;;;;;;;2.13;65.04;91644.66;2074756;69;20145;-71
2021/12/28 01:25:22;;;;;;;11.80;5.45;;;;;;;1.96;65.76;91644.78;2074424;69;20190;-72
2021/12/28 01:27:47;;;;;;;6.80;4.28;;;;;;;2.06;64.67;91642.03;2074614;69;20235;-71
2021/12/28 01:30:18;;;;;;;8.05;4.60;;;;;;;2.04;64.88;91637.78;2074894;69;20540;-78
2021/12/28 01:32:44;;;;;;;9.05;4.68;;;;;;;2.00;66.16;91642.31;2075059;69;20175;-76
2021/12/28 01:35:12;;;;;;;7.80;4.32;;;;;;;2.10;64.61;91640.28;2074536;69;20158;-76
2021/12/28 01:37:38;;;;;;;7.00;3.97;;;;;;;2.09;64.99;91641.59;2074672;69;20210;-75
2021/12/28 01:40:07;;;;;;;7.85;4.38;;;;;;;2.16;64.67;91637.97;2074895;69;20164;-78
2021/12/28 01:42:33;;;;;;;5.47;3.30;;;;;;;2.11;64.72;91638.22;2074555;69;20167;-78
2021/12/28 01:44:59;;;;;;;7.05;3.47;;;;;;;2.02;64.50;91632.09;2074552;69;20156;-72
2021/12/28 01:47:24;;;;;;;5.22;3.17;;;;;;;2.06;64.88;91628.88;2074491;69;20619;-76
2021/12/28 01:49:50;;;;;;;5.25;2.85;;;;;;;2.09;65.33;91626.97;2074476;69;20667;-74
2021/12/28 01:52:16;;;;;;;8.35;4.25;;;;;;;1.82;66.51;91627.78;2074722;69;20143;-72
2021/12/28 01:54:42;;;;;;;8.50;4.20;;;;;;;1.80;65.94;91626.94;2074802;69;20152;-75
2021/12/28 01:57:08;;;;;;;6.60;3.60;;;;;;;1.73;66.08;91634.78;2074760;69;20238;-71
2021/12/28 01:59:34;;;;;;;6.70;3.53;;;;;;;1.72;66.68;91630.53;2074692;69;20568;-71
2021/12/28 02:01:59;;;;;;;5.78;3.75;;;;;;;1.66;65.75;91624.56;2074889;69;20159;-71
2021/12/28 02:04:28;;;;;;;5.82;3.70;;;;;;;1.72;65.93;91627.03;2074492;69;20521;-72
2021/12/28 02:07:02;;;;;;;6.70;3.75;;;;;;;1.74;65.34;91622.38;2074888;69;20175;-72
2021/12/28 02:09:28;;;;;;;6.15;3.50;;;;;;;1.65;65.38;91614.00;2074785;69;20208;-73
2021/12/28 02:11:53;;;;;;;6.13;3.55;;;;;;;1.70;65.73;91613.75;2074897;69;20617;-77
2021/12/28 02:14:20;;;;;;;5.75;3.60;;;;;;;1.74;64.60;91607.75;2074799;69;20185;-80
2021/12/28 02:16:46;;;;;;;5.63;3.15;;;;;;;1.56;66.18;91600.84;2074911;69;20533;-72
2021/12/28 02:19:13;;;;;;;5.72;3.30;;;;;;;1.74;65.87;91600.19;2074578;69;20148;-72
2021/12/28 02:21:39;;;;;;;5.15;3.40;;;;;;;1.66;65.45;91610.69;2074425;69;20559;-72
2021/12/28 02:24:06;;;;;;;6.80;3.63;;;;;;;1.70;65.51;91611.00;2074313;69;20147;-72
2021/12/28 02:26:32;;;;;;;7.72;4.00;;;;;;;1.70;65.60;91605.44;2074273;69;20231;-73
2021/12/28 02:28:59;;;;;;;6.38;3.60;;;;;;;1.83;65.37;91609.81;2074523;69;20519;-72
2021/12/28 02:31:26;;;;;;;7.57;3.63;;;;;;;1.73;65.72;91592.44;2074662;69;20180;-74
2021/12/28 02:33:52;;;;;;;8.20;4.30;;;;;;;1.69;66.49;91592.84;2074493;69;20231;-72
2021/12/28 02:36:18;;;;;;;6.70;3.90;;;;;;;1.57;67.27;91594.00;2074927;69;20505;-74
2021/12/28 02:38:46;;;;;;;6.95;4.07;;;;;;;1.53;66.90;91588.88;2075227;69;20175;-74
2021/12/28 02:41:12;;;;;;;9.00;3.92;;;;;;;1.73;66.00;91587.59;2075091;69;20195;-74
2021/12/28 02:43:40;;;;;;;6.18;3.40;;;;;;;1.83;65.40;91590.41;2075005;69;20588;-74
2021/12/28 02:46:07;;;;;;;7.05;3.40;;;;;;;1.76;65.30;91600.34;2074288;69;20148;-73
2021/12/28 02:48:35;;;;;;;7.63;3.95;;;;;;;1.29;67.02;91607.19;2074348;69;20148;-75
2021/12/28 02:51:14;;;;;;;9.90;4.70;;;;;;;1.07;67.25;91620.06;2074594;69;20156;-73
2021/12/28 02:53:40;;;;;;;8.00;5.20;;;;;;;1.32;66.21;91617.09;2075043;69;20148;-78
2021/12/28 02:56:07;;;;;;;8.02;4.13;;;;;;;1.41;66.33;91607.38;2071681;69;20233;-75
2021/12/28 02:58:35;;;;;;;6.90;3.95;;;;;;;1.62;66.03;91599.28;2074998;69;20226;-72
2021/12/28 03:01:08;;;;;;;8.25;3.88;;;;;;;1.39;66.67;91605.19;2071621;69;20144;-76
2021/12/28 03:03:35;;;;;;;9.02;4.82;;;;;;;1.28;67.30;91586.31;2075156;69;20170;-73
2021/12/28 03:06:04;;;;;;;6.75;4.05;;;;;;;1.19;66.91;91575.91;2075129;69;20578;-74
2021/12/28 03:08:31;;;;;;;7.15;3.92;;;;;;;1.46;66.73;91573.81;2075035;69;20227;-73
2021/12/28 03:10:59;;;;;;;6.28;3.60;;;;;;;1.51;65.71;91563.75;2075020;69;20509;-76
2021/12/28 03:13:55;;;;;;;6.40;3.20;;;;;;;1.41;66.20;91563.00;2075328;69;20163;-71
2021/12/28 03:16:23;;;;;;;6.25;3.05;;;;;;;1.47;65.45;91552.38;2072177;69;20670;-72
2021/12/28 03:18:49;;;;;;;6.97;3.90;;;;;;;1.08;67.77;91568.88;2075239;69;20143;-76
2021/12/28 03:21:18;;;;;;;7.50;3.58;;;;;;;1.30;66.87;91560.78;2075092;69;20679;-75
2021/12/28 03:23:45;;;;;;;6.90;4.13;;;;;;;1.19;66.40;91573.13;2075189;69;20251;-73
2021/12/28 03:26:12;;;;;;;6.65;3.83;;;;;;;1.21;66.22;91576.81;2075122;69;20143;-78
2021/12/28 03:28:40;;;;;;;7.28;3.95;;;;;;;1.19;65.66;91576.66;2075235;69;20256;-77
2021/12/28 03:31:09;;;;;;;7.47;3.75;;;;;;;1.20;66.65;91580.16;2075064;69;20598;-72
2021/12/28 03:33:38;;;;;;;7.20;4.07;;;;;;;1.01;67.84;91583.59;2075286;69;20525;-72
2021/12/28 03:36:06;;;;;;;6.90;4.05;;;;;;;1.06;66.59;91579.81;2074923;69;20156;-72
2021/12/28 03:38:32;;;;;;;6.10;3.30;;;;;;;1.07;66.62;91580.53;2075095;69;20232;-72
2021/12/28 03:40:58;;;;;;;7.65;3.75;;;;;;;1.03;67.46;91578.19;2074858;69;20247;-72
2021/12/28 03:43:24;;;;;;;6.90;3.63;;;;;;;0.94;66.44;91562.25;2074949;69;20162;-78
2021/12/28 03:45:50;;;;;;;6.20;3.60;;;;;;;0.91;66.27;91547.47;2074911;69;20212;-71
2021/12/28 03:48:16;;;;;;;5.50;3.35;;;;;;;1.05;66.11;91558.94;2074920;69;20140;-71
2021/12/28 03:50:42;;;;;;;5.43;3.13;;;;;;;0.93;67.28;91555.97;2074912;69;20195;-72
2021/12/28 03:53:08;;;;;;;5.80;3.30;;;;;;;1.16;66.40;91560.44;2071667;69;20223;-73
2021/12/28 03:55:35;;;;;;;5.68;3.47;;;;;;;1.10;66.81;91551.66;2074842;69;20398;-71
2021/12/28 03:58:02;;;;;;;6.00;3.65;;;;;;;1.09;65.97;91544.66;2074973;69;20209;-71
2021/12/28 04:00:41;;;;;;;11.77;5.80;;;;;;;1.01;67.49;91542.00;2074955;69;20245;-72
2021/12/28 04:03:08;;;;;;;38.15;17.88;;;;;;;1.05;67.13;91533.97;2074828;69;20265;-71
2021/12/28 04:05:36;;;;;;;12.95;6.78;;;;;;;0.99;66.70;91527.97;2074985;69;20139;-70
2021/12/28 04:08:02;;;;;;;15.55;7.65;;;;;;;1.07;66.80;91533.41;2074499;69;20693;-70
2021/12/28 04:10:31;;;;;;;94.43;37.53;;;;;;;0.94;67.65;91534.53;2071177;69;20157;-75
2021/12/28 04:12:57;;;;;;;76.55;31.52;;;;;;;0.78;68.74;91542.34;2075220;69;20155;-70
2021/12/28 04:15:24;;;;;;;56.65;23.13;;;;;;;1.07;68.44;91539.69;2075019;69;20147;-72
2021/12/28 04:17:50;;;;;;;58.05;23.30;;;;;;;1.10;67.46;91544.09;2071688;69;20148;-73
2021/12/28 04:20:19;;;;;;;36.33;16.17;;;;;;;1.08;67.11;91554.28;2074870;69;20235;-72
2021/12/28 04:22:45;;;;;;;34.97;16.48;;;;;;;1.03;67.15;91558.78;2075116;69;20571;-72
2021/12/28 04:25:14;;;;;;;37.38;16.58;;;;;;;1.03;67.33;91558.78;2075262;69;20146;-74
2021/12/28 04:27:41;;;;;;;31.50;14.40;;;;;;;1.07;66.89;91539.69;2075125;69;20154;-80
2021/12/28 04:30:08;;;;;;;24.60;11.27;;;;;;;1.13;66.06;91539.41;2075210;69;20147;-74
2021/12/28 04:32:35;;;;;;;14.45;6.68;;;;;;;1.22;66.46;91525.59;2071858;69;20251;-77
2021/12/28 04:35:00;;;;;;;20.33;9.73;;;;;;;1.19;67.06;91537.09;2075107;69;20182;-73
2021/12/28 04:37:26;;;;;;;17.30;8.18;;;;;;;1.26;67.34;91530.72;2075152;69;20238;-72
2021/12/28 04:39:52;;;;;;;13.10;6.57;;;;;;;1.40;66.95;91525.50;2075209;69;20622;-71
2021/12/28 04:42:18;;;;;;;9.90;5.95;;;;;;;1.50;66.78;91523.47;2075306;69;20159;-76
2021/12/28 04:44:45;;;;;;;12.48;6.18;;;;;;;1.49;66.53;91527.56;2075183;69;20265;-74
2021/12/28 04:47:11;;;;;;;11.77;6.05;;;;;;;1.47;66.77;91524.66;2075096;69;20250;-71
2021/12/28 04:49:37;;;;;;;10.57;5.78;;;;;;;1.49;66.96;91519.97;2074987;69;20637;-71
2021/12/28 04:52:05;;;;;;;11.05;5.03;;;;;;;1.63;66.42;91519.56;2075300;69;20140;-71
2021/12/28 04:54:30;;;;;;;13.40;5.90;;;;;;;1.35;67.51;91515.41;2071965;69;20152;-73
2021/12/28 04:56:56;;;;;;;11.57;5.68;;;;;;;1.25;68.16;91513.34;2071791;69;20158;-71
2021/12/28 04:59:22;;;;;;;12.48;5.95;;;;;;;1.56;67.47;91509.31;2074935;69;20148;-72
2021/12/28 05:01:48;;;;;;;12.52;6.10;;;;;;;1.49;67.31;91511.66;2075122;69;20133;-74
2021/12/28 05:04:13;;;;;;;11.65;6.00;;;;;;;1.49;67.63;91502.59;2074923;69;20136;-73
2021/12/28 05:06:39;;;;;;;10.93;5.35;;;;;;;1.56;67.08;91498.22;2075180;69;20152;-76
2021/12/28 05:09:09;;;;;;;15.15;8.60;;;;;;;1.63;66.70;91497.38;2075227;69;20171;-75
2021/12/28 05:11:36;;;;;;;14.27;7.22;;;;;;;1.58;66.90;91496.34;2075155;69;20630;-75
2021/12/28 05:14:04;;;;;;;16.73;8.88;;;;;;;1.53;67.53;91494.56;2075088;69;20217;-78
2021/12/28 05:16:30;;;;;;;14.73;8.70;;;;;;;1.61;67.16;91488.91;2075087;69;20563;-76
2021/12/28 05:18:57;;;;;;;16.92;10.48;;;;;;;1.63;67.09;91483.50;2075076;69;20136;-71
2021/12/28 05:21:23;;;;;;;22.75;15.80;;;;;;;1.68;66.89;91474.16;2074952;69;20175;-72
2021/12/28 05:23:48;;;;;;;11.65;7.88;;;;;;;1.67;67.56;91475.47;2075068;69;20243;-74
2021/12/28 05:26:14;;;;;;;12.93;7.80;;;;;;;1.45;68.72;91474.56;2075167;69;20183;-71
2021/12/28 05:28:40;;;;;;;16.88;7.75;;;;;;;1.64;67.79;91466.25;2075063;69;20140;-71
2021/12/28 05:31:06;;;;;;;11.50;7.40;;;;;;;1.71;67.24;91462.63;2075148;69;20155;-71
2021/12/28 05:33:32;;;;;;;10.90;6.25;;;;;;;1.75;66.95;91462.91;2075177;69;20144;-75
2021/12/28 05:35:58;;;;;;;10.68;6.72;;;;;;;1.84;66.86;91469.06;2074856;69;20193;-71
2021/12/28 05:38:23;;;;;;;12.82;7.05;;;;;;;1.78;67.16;91463.78;2075034;69;20171;-73
2021/12/28 05:40:49;;;;;;;11.85;7.18;;;;;;;1.76;67.60;91467.16;2075062;69;20148;-71
2021/12/28 05:43:15;;;;;;;10.40;6.95;;;;;;;1.80;67.32;91469.50;2075073;69;20148;-74
2021/12/28 05:45:43;;;;;;;11.18;6.30;;;;;;;1.75;68.00;91460.13;2071672;69;20136;-72
2021/12/28 05:48:08;;;;;;;8.75;5.63;;;;;;;1.96;66.70;91456.75;2075023;69;20135;-75
2021/12/28 05:50:34;;;;;;;8.90;4.82;;;;;;;1.94;67.12;91467.00;2074938;69;20179;-72
2021/12/28 05:53:00;;;;;;;9.77;5.93;;;;;;;1.91;67.21;91471.66;2075023;69;20140;-73
2021/12/28 05:55:26;;;;;;;14.77;9.40;;;;;;;1.90;67.21;91472.25;2074964;69;20618;-73
2021/12/28 05:57:51;;;;;;;14.48;9.45;;;;;;;2.01;66.76;91480.72;2075233;69;20156;-76
2021/12/28 06:00:17;;;;;;;17.27;11.48;;;;;;;1.80;67.63;91485.41;2074936;69;20156;-75
2021/12/28 06:02:45;;;;;;;15.20;10.27;;;;;;;1.82;67.83;91474.44;2074922;69;20139;-77
2021/12/28 06:05:11;;;;;;;18.20;11.23;;;;;;;1.93;67.21;91471.09;2074921;69;20148;-75
2021/12/28 06:07:37;;;;;;;13.50;8.77;;;;;;;1.99;66.52;91461.16;2074951;69;20179;-74
2021/12/28 06:10:04;;;;;;;15.90;9.10;;;;;;;1.97;67.23;91468.59;2075078;69;20155;-72
2021/12/28 06:12:30;;;;;;;19.58;12.30;;;;;;;1.95;67.74;91474.75;2075503;69;20148;-74
2021/12/28 06:14:56;;;;;;;21.70;13.77;;;;;;;1.99;67.86;91474.31;2075669;69;20269;-75
2021/12/28 06:17:21;;;;;;;26.50;17.88;;;;;;;2.07;67.37;91471.38;2075730;69;20168;-79
2021/12/28 06:19:47;;;;;;;25.83;15.52;;;;;;;2.07;67.37;91461.00;2075356;69;20144;-75
2021/12/28 06:22:13;;;;;;;21.10;14.00;;;;;;;2.09;67.23;91474.28;2075496;69;20172;-76
2021/12/28 06:24:40;;;;;;;18.75;12.13;;;;;;;2.08;67.22;91481.91;2072135;69;20171;-78
2021/12/28 06:27:05;;;;;;;23.35;11.40;;;;;;;2.11;66.87;91488.31;2075430;69;20227;-77
2021/12/28 06:29:31;;;;;;;21.17;11.77;;;;;;;2.04;67.40;91482.31;2072069;69;20258;-76
2021/12/28 06:31:57;;;;;;;24.35;14.43;;;;;;;1.99;67.41;91490.97;2075450;69;20151;-77
2021/12/28 06:34:22;;;;;;;22.95;13.20;;;;;;;2.03;67.41;91486.44;2075403;69;20144;-79
2021/12/28 06:36:48;;;;;;;22.10;10.95;;;;;;;2.20;66.95;91482.00;2075548;69;20135;-78
2021/12/28 06:39:14;;;;;;;12.90;7.07;;;;;;;2.10;67.87;91470.91;2075583;69;20163;-75
2021/12/28 06:41:39;;;;;;;8.65;4.80;;;;;;;2.32;66.74;91459.94;2075504;69;20151;-73
2021/12/28 06:44:07;;;;;;;6.75;3.97;;;;;;;2.39;65.79;91467.41;2071979;69;20138;-74
2021/12/28 06:46:33;;;;;;;14.43;7.47;;;;;;;2.40;66.52;91472.34;2071992;69;20558;-71
2021/12/28 06:48:58;;;;;;;23.73;11.15;;;;;;;1.81;69.15;91473.72;2075438;69;20183;-77
2021/12/28 06:51:24;;;;;;;23.70;12.27;;;;;;;2.06;68.79;91483.78;2075375;69;20171;-79
2021/12/28 06:53:50;;;;;;;22.00;12.10;;;;;;;2.22;68.08;91476.63;2075397;69;20662;-78
2021/12/28 06:56:15;;;;;;;22.33;12.85;;;;;;;2.20;67.84;91474.44;2075364;69;20136;-75
2021/12/28 06:58:41;;;;;;;20.48;10.80;;;;;;;2.28;67.71;91480.53;2075430;69;20177;-80
2021/12/28 07:01:07;;;;;;;17.23;9.23;;;;;;;2.33;67.41;91481.56;2075474;69;20144;-77
2021/12/28 07:03:33;;;;;;;11.13;6.57;;;;;;;2.42;67.14;91480.81;2075309;69;20152;-76
2021/12/28 07:05:59;;;;;;;18.88;10.10;;;;;;;2.08;68.22;91492.28;2075160;69;20136;-77
2021/12/28 07:08:26;;;;;;;14.23;9.10;;;;;;;1.97;69.11;91497.09;2072020;69;20659;-80
2021/12/28 07:10:52;;;;;;;18.45;9.02;;;;;;;2.22;67.87;91496.78;2075307;69;20539;-78
2021/12/28 07:13:17;;;;;;;18.92;10.50;;;;;;;2.33;67.40;91503.78;2075328;69;20156;-74
2021/12/28 07:15:43;;;;;;;16.45;9.82;;;;;;;2.46;67.07;91505.38;2075333;69;20597;-72
2021/12/28 07:18:09;;;;;;;16.45;9.90;;;;;;;2.54;66.32;91498.34;2075501;69;20148;-73
2021/12/28 07:20:35;;;;;;;16.38;9.40;;;;;;;2.57;66.32;91499.22;2075181;69;20172;-72
2021/12/28 07:23:01;;;;;;;25.77;14.55;;;;;;;2.45;67.48;91496.31;2074956;69;20199;-76
2021/12/28 07:25:26;;;;;;;20.50;11.00;;;;;;;2.60;66.85;91511.19;2075128;69;20128;-80
2021/12/28 07:27:52;;;;;;;15.95;9.13;;;;;;;2.64;66.45;91517.78;2075297;69;20235;-78
2021/12/28 07:30:17;;;;;;;17.20;9.00;;;;;;;2.66;67.11;91522.75;2075481;69;20559;-80
2021/12/28 07:32:43;;;;;;;19.25;11.65;;;;;;;2.54;66.79;91533.72;2075208;69;20239;-79
2021/12/28 07:35:10;;;;;;;19.58;10.00;;;;;;;2.63;66.66;91533.00;2074897;69;20152;-80
2021/12/28 07:37:36;;;;;;;17.05;8.98;;;;;;;2.80;65.84;91523.75;2075156;69;20159;-80
2021/12/28 07:40:04;;;;;;;15.02;9.13;;;;;;;2.74;66.71;91535.16;2075174;69;20133;-80
2021/12/28 07:42:30;;;;;;;13.98;8.27;;;;;;;2.69;66.91;91529.91;2072013;69;20136;-75
2021/12/28 07:44:56;;;;;;;13.75;8.18;;;;;;;2.87;65.42;91528.38;2075330;69;20135;-77
2021/12/28 07:47:22;;;;;;;15.02;7.93;;;;;;;2.97;65.23;91522.78;2075278;69;20579;-81
2021/12/28 07:49:47;;;;;;;9.88;5.70;;;;;;;2.86;66.40;91529.72;2075150;69;20182;-81
2021/12/28 07:52:13;;;;;;;9.82;4.53;;;;;;;2.92;65.71;91527.34;2075300;69;20144;-80
2021/12/28 07:54:38;;;;;;;7.60;4.30;;;;;;;3.13;65.19;91512.81;2075493;69;20148;-77
2021/12/28 07:57:04;;;;;;;7.50;4.22;;;;;;;3.22;65.26;91528.72;2075262;69;20621;-76
2021/12/28 07:59:30;;;;;;;10.02;5.78;;;;;;;3.17;64.76;91524.19;2075039;69;20167;-78
2021/12/28 08:01:55;;;;;;;10.13;4.70;;;;;;;3.17;65.12;91515.84;2075212;69;20160;-75
2021/12/28 08:04:21;;;;;;;13.07;5.43;;;;;;;3.08;65.29;91516.63;2075079;69;20595;-77
2021/12/28 08:06:47;;;;;;;7.45;4.43;;;;;;;3.22;65.09;91506.47;2075379;69;20152;-79
2021/12/28 08:09:12;;;;;;;8.00;4.68;;;;;;;3.33;64.63;91507.88;2075235;69;20209;-77
2021/12/28 08:11:38;;;;;;;6.65;3.97;;;;;;;3.36;64.61;91512.25;2075267;69;20638;-73
2021/12/28 08:14:04;;;;;;;6.00;4.00;;;;;;;3.43;64.26;91516.91;2075218;69;20162;-78
2021/12/28 08:16:31;;;;;;;7.07;4.63;;;;;;;3.46;64.40;91523.34;2075266;69;20151;-79
2021/12/28 08:18:56;;;;;;;8.05;4.78;;;;;;;3.49;64.03;91531.22;2075214;69;20198;-78
2021/12/28 08:21:22;;;;;;;7.35;4.20;;;;;;;3.62;64.20;91543.16;2075177;69;20268;-74
2021/12/28 08:23:48;;;;;;;8.57;4.50;;;;;;;3.51;63.83;91533.41;2075349;69;20143;-76
2021/12/28 08:26:16;;;;;;;6.80;4.53;;;;;;;3.33;64.10;91534.97;2075233;69;20140;-79
2021/12/28 08:28:44;;;;;;;7.07;4.35;;;;;;;3.60;63.61;91535.41;2075193;69;20151;-76
2021/12/28 08:31:10;;;;;;;6.97;4.28;;;;;;;3.75;63.31;91535.03;2075086;69;20152;-74
2021/12/28 08:33:35;;;;;;;6.88;3.90;;;;;;;3.72;63.38;91538.28;2075189;69;20148;-77
2021/12/28 08:36:01;;;;;;;6.93;3.20;;;;;;;3.82;63.59;91533.38;2075069;69;20142;-77
2021/12/28 08:38:27;;;;;;;5.30;3.50;;;;;;;3.49;63.68;91531.22;2075335;69;20171;-83
2021/12/28 08:40:54;;;;;;;12.90;7.28;;;;;;;3.75;62.72;91535.03;2075214;69;20602;-79
2021/12/28 08:43:19;;;;;;;14.48;7.40;;;;;;;3.96;62.94;91539.16;2075146;69;20136;-74
2021/12/28 08:45:45;;;;;;;7.38;4.68;;;;;;;3.87;62.83;91539.97;2075176;69;20201;-71
2021/12/28 08:48:13;;;;;;;9.48;4.70;;;;;;;4.07;62.71;91546.84;2075049;69;20184;-71
2021/12/28 08:50:41;;;;;;;7.68;3.85;;;;;;;3.90;62.68;91538.78;2074960;69;20240;-73
2021/12/28 08:53:07;;;;;;;7.35;3.63;;;;;;;4.05;62.13;91541.88;2075167;69;20160;-71
2021/12/28 08:55:33;;;;;;;6.38;3.83;;;;;;;4.22;61.57;91538.09;2075062;69;20151;-72
2021/12/28 08:57:59;;;;;;;6.50;3.30;;;;;;;4.26;61.34;91543.94;2074995;69;20144;-73
2021/12/28 09:00:27;;;;;;;8.75;5.03;;;;;;;4.36;61.35;91557.78;2075000;69;20170;-71
2021/12/28 09:02:55;;;;;;;11.95;6.00;;;;;;;4.32;61.89;91571.47;2074949;69;20151;-72
2021/12/28 09:05:21;;;;;;;9.45;4.97;;;;;;;3.81;62.33;91588.34;2074946;69;20147;-72
2021/12/28 09:07:47;;;;;;;18.08;7.75;;;;;;;4.24;61.58;91593.94;2074914;69;20140;-73
2021/12/28 09:10:13;;;;;;;7.60;4.43;;;;;;;4.39;61.27;91572.56;2074909;69;20143;-71
2021/12/28 09:12:39;;;;;;;6.20;4.22;;;;;;;4.47;61.00;91540.38;2074855;69;20620;-70
2021/12/28 09:15:06;;;;;;;6.88;4.10;;;;;;;4.63;61.20;91551.84;2074863;69;20159;-75
2021/12/28 09:17:35;;;;;;;6.10;4.03;;;;;;;4.63;61.54;91548.31;2075063;69;20187;-77
2021/12/28 09:20:05;;;;;;;10.40;5.10;;;;;;;4.62;61.13;91536.44;2074878;69;20162;-74
2021/12/28 09:22:30;;;;;;;9.00;4.45;;;;;;;4.69;60.89;91549.44;2074982;69;20147;-76
2021/12/28 09:24:56;;;;;;;8.65;3.75;;;;;;;4.73;61.33;91535.75;2075154;69;20233;-76
2021/12/28 09:27:21;;;;;;;7.03;4.43;;;;;;;4.57;61.10;91535.44;2074920;69;20162;-78
2021/12/28 09:29:47;;;;;;;7.15;4.50;;;;;;;4.79;60.67;91544.50;2074973;69;20146;-72
2021/12/28 09:32:12;;;;;;;6.85;4.32;;;;;;;5.04;60.77;91546.00;2074990;69;20239;-72
2021/12/28 09:34:38;;;;;;;6.88;4.35;;;;;;;4.94;60.46;91550.97;2074887;69;20151;-72
2021/12/28 09:37:04;;;;;;;8.98;4.82;;;;;;;5.09;60.81;91544.94;2074983;69;20139;-72
2021/12/28 09:39:31;;;;;;;9.93;5.65;;;;;;;5.45;60.75;91545.69;2075071;69;20593;-72
2021/12/28 09:42:01;;;;;;;44.25;17.88;;;;;;;5.65;61.14;91546.94;2074948;69;20304;-74
2021/12/28 09:44:29;;;;;;;22.52;9.93;;;;;;;5.78;59.44;91551.91;2074908;69;20158;-72
2021/12/28 09:46:56;;;;;;;13.32;6.53;;;;;;;5.76;59.39;91553.84;2075275;69;20187;-72
2021/12/28 09:49:21;;;;;;;15.93;8.20;;;;;;;5.90;60.15;91532.34;2075314;69;20148;-75
2021/12/28 09:51:47;;;;;;;14.35;7.43;;;;;;;5.86;59.33;91521.69;2075276;69;20248;-75
2021/12/28 09:54:14;;;;;;;15.20;7.28;;;;;;;6.03;59.31;91508.66;2075529;69;20675;-78
2021/12/28 09:56:39;;;;;;;8.98;4.30;;;;;;;6.39;59.81;91495.34;2075396;69;20155;-73
2021/12/28 09:59:05;;;;;;;7.65;3.92;;;;;;;6.59;56.46;91490.88;2075517;69;20144;-76
2021/12/28 10:01:31;;;;;;;9.00;4.57;;;;;;;6.33;57.17;91473.38;2075597;69;20225;-76
2021/12/28 10:03:59;;;;;;;5.55;3.65;;;;;;;6.95;56.17;91477.44;2075417;69;20155;-72
2021/12/28 10:06:27;;;;;;;10.73;3.92;;;;;;;7.70;54.42;91489.81;2075334;69;20319;-76
2021/12/28 10:09:06;;;;;;;6.53;3.70;;;;;;;7.45;53.66;91487.81;2075569;69;20144;-78
2021/12/28 10:11:38;;;;;;;5.97;4.05;;;;;;;7.43;52.49;91487.72;2075578;69;20163;-73
2021/12/28 10:14:13;;;;;;;8.23;3.50;;;;;;;7.61;52.25;91499.13;2075511;69;20148;-74
2021/12/28 10:16:58;;;;;;;12.82;5.95;;;;;;;7.56;52.82;91517.06;2075620;69;20659;-76
2021/12/28 10:19:35;;;;;;;9.05;5.40;;;;;;;7.46;53.90;91528.44;2075516;69;20148;-75
2021/12/28 10:22:31;;;;;;;63.30;31.02;;;;;;;7.35;54.16;91544.00;2075486;69;20144;-75
2021/12/28 10:25:19;;;;;;;11.30;5.97;;;;;;;7.09;55.16;91553.75;2074587;69;20128;-71
2021/12/28 10:27:50;;;;;;;9.77;5.00;;;;;;;6.90;55.33;91556.88;2075761;69;20626;-72
2021/12/28 10:30:19;;;;;;;14.63;8.20;;;;;;;7.08;54.84;91558.63;2075556;69;20204;-73
2021/12/28 10:32:47;;;;;;;28.50;13.18;;;;;;;7.03;54.80;91550.63;2075415;69;20167;-72
2021/12/28 10:35:16;;;;;;;42.45;22.30;;;;;;;6.65;55.29;91541.56;2075310;69;20155;-71
2021/12/28 10:37:46;;;;;;;36.20;17.10;;;;;;;6.79;55.26;91522.03;2075355;69;20203;-71
2021/12/28 10:40:19;;;;;;;19.45;9.45;;;;;;;6.95;54.07;91494.22;2075429;69;20572;-73
2021/12/28 10:42:52;;;;;;;18.65;8.10;;;;;;;7.16;53.54;91463.19;2075376;69;20314;-72
2021/12/28 10:45:27;;;;;;;17.30;8.25;;;;;;;7.46;53.36;91466.84;2075370;69;20215;-72
2021/12/28 10:47:54;;;;;;;14.88;8.25;;;;;;;7.87;54.07;91494.16;2075407;69;20155;-71
2021/12/28 10:50:35;;;;;;;13.80;7.57;;;;;;;7.77;53.45;91496.44;2075245;69;20140;-72
2021/12/28 10:53:19;;;;;;;22.08;8.07;;;;;;;7.52;53.52;91502.88;2075334;69;20148;-71
2021/12/28 10:55:51;;;;;;;7.57;4.65;;;;;;;6.69;55.11;91508.22;2074953;69;20195;-72
2021/12/28 10:58:28;;;;;;;8.02;4.40;;;;;;;7.02;53.40;91512.81;2075374;69;20140;-73
2021/12/28 11:00:55;;;;;;;11.13;4.22;;;;;;;7.19;53.61;91520.00;2075533;69;20140;-72
2021/12/28 11:03:31;;;;;;;9.85;4.95;;;;;;;7.31;52.28;91517.84;2075249;69;20152;-73
2021/12/28 11:06:04;;;;;;;11.50;7.00;;;;;;;7.19;53.80;91520.00;2075249;69;20154;-72
2021/12/28 11:08:30;;;;;;;19.17;10.30;;;;;;;7.38;54.20;91520.38;2075414;69;20156;-75
2021/12/28 11:11:00;;;;;;;53.85;21.13;;;;;;;7.50;54.34;91537.06;2075352;69;20139;-77
2021/12/28 11:13:29;;;;;;;36.83;16.95;;;;;;;7.54;54.36;91550.56;2075321;69;20199;-73
2021/12/28 11:15:55;;;;;;;20.88;8.43;;;;;;;7.61;53.77;91553.06;2072042;69;20176;-78
2021/12/28 11:18:23;;;;;;;10.93;6.75;;;;;;;7.63;53.80;91555.25;2075270;69;20624;-74
2021/12/28 11:20:51;;;;;;;11.93;6.53;;;;;;;7.73;54.39;91547.38;2075202;69;20152;-74
2021/12/28 11:23:23;;;;;;;46.88;30.50;;;;;;;7.51;54.49;91535.00;2075359;69;20156;-74
2021/12/28 11:26:09;;;;;;;23.65;12.52;;;;;;;7.18;55.23;91529.72;2075447;69;20617;-74
2021/12/28 11:28:36;;;;;;;13.98;8.32;;;;;;;7.48;54.97;91519.44;2075243;69;20519;-74
2021/12/28 11:31:08;;;;;;;10.10;5.00;;;;;;;7.38;54.45;91511.97;2075221;69;20140;-73
2021/12/28 11:33:45;;;;;;;16.23;5.47;;;;;;;7.77;53.28;91497.16;2075349;69;20151;-72
2021/12/28 11:36:11;;;;;;;12.02;5.63;;;;;;;8.05;51.92;91489.47;2075127;69;20235;-73
2021/12/28 11:38:38;;;;;;;16.25;7.68;;;;;;;8.20;52.73;91467.75;2075293;69;20155;-74
2021/12/28 11:41:05;;;;;;;9.45;3.83;;;;;;;8.21;52.44;91475.56;2075277;69;20147;-74